createdAt,value
2022-12-03T00:01:14.964Z,24.08
2022-12-03T00:03:41.936Z,24.45
2022-12-03T00:06:08.902Z,24.00
2022-12-03T00:08:35.820Z,23.58
2022-12-03T00:11:02.602Z,25.15
2022-12-03T00:13:29.916Z,23.35
2022-12-03T00:15:57.074Z,25.67
2022-12-03T00:18:24.423Z,23.08
2022-12-03T00:20:51.473Z,23.13
2022-12-03T00:23:18.355Z,24.63
2022-12-03T00:25:45.105Z,23.83
2022-12-03T00:28:11.937Z,24.98
2022-12-03T00:30:38.808Z,26.73
2022-12-03T00:33:05.733Z,24.08
2022-12-03T00:35:32.497Z,24.90
2022-12-03T00:37:59.537Z,24.33
2022-12-03T00:40:26.321Z,23.10
2022-12-03T00:42:53.529Z,24.30
2022-12-03T00:45:20.349Z,22.30
2022-12-03T00:47:47.499Z,23.02
2022-12-03T00:50:14.420Z,22.95
2022-12-03T00:52:41.567Z,22.90
2022-12-03T00:55:08.965Z,22.73
2022-12-03T00:57:36.068Z,22.63
2022-12-03T01:00:04.784Z,22.67
2022-12-03T01:02:32.020Z,22.02
2022-12-03T01:04:59.206Z,22.33
2022-12-03T01:07:26.090Z,23.42
2022-12-03T01:09:53.416Z,22.05
2022-12-03T01:12:20.426Z,22.50
2022-12-03T01:14:47.989Z,22.35
2022-12-03T01:17:14.977Z,22.02
2022-12-03T01:19:47.904Z,22.42
2022-12-03T01:22:15.328Z,21.73
2022-12-03T01:24:42.164Z,21.02
2022-12-03T01:27:08.962Z,22.13
2022-12-03T01:29:35.918Z,21.15
2022-12-03T01:32:18.255Z,21.40
2022-12-03T01:34:56.533Z,22.67
2022-12-03T01:37:25.625Z,21.60
2022-12-03T01:39:52.983Z,20.08
2022-12-03T01:42:26.216Z,20.33
2022-12-03T01:44:55.580Z,21.52
2022-12-03T01:47:28.902Z,21.02
2022-12-03T01:50:01.627Z,21.65
2022-12-03T01:52:32.575Z,20.80
2022-12-03T01:55:02.360Z,20.60
2022-12-03T01:57:42.545Z,21.20
2022-12-03T02:00:19.322Z,20.20
2022-12-03T02:02:49.553Z,20.42
2022-12-03T02:05:20.276Z,20.90
2022-12-03T02:07:47.631Z,20.30
2022-12-03T02:10:17.359Z,19.55
2022-12-03T02:12:59.722Z,20.45
2022-12-03T02:15:27.014Z,19.08
2022-12-03T02:17:54.007Z,19.63
2022-12-03T02:20:21.135Z,19.40
2022-12-03T02:23:18.426Z,20.13
2022-12-03T02:25:45.275Z,21.02
2022-12-03T02:28:12.132Z,19.52
2022-12-03T02:30:40.144Z,19.10
2022-12-03T02:33:07.420Z,18.55
2022-12-03T02:35:36.512Z,19.65
2022-12-03T02:38:23.018Z,19.38
2022-12-03T02:40:58.762Z,19.23
2022-12-03T02:43:26.169Z,18.70
2022-12-03T02:45:56.391Z,18.17
2022-12-03T02:48:33.901Z,19.17
2022-12-03T02:51:05.189Z,18.10
2022-12-03T02:53:42.451Z,20.13
2022-12-03T02:56:13.495Z,19.83
2022-12-03T02:58:41.843Z,18.65
2022-12-03T03:01:09.682Z,18.52
2022-12-03T03:03:37.914Z,18.25
2022-12-03T03:06:07.208Z,19.17
2022-12-03T03:08:35.176Z,17.40
2022-12-03T03:11:02.883Z,19.13
2022-12-03T03:13:32.784Z,18.02
2022-12-03T03:16:02.033Z,19.15
2022-12-03T03:18:29.434Z,19.77
2022-12-03T03:20:56.459Z,18.85
2022-12-03T03:23:25.367Z,18.70
2022-12-03T03:26:05.796Z,17.67
2022-12-03T03:28:36.668Z,18.13
2022-12-03T03:31:05.390Z,19.70
2022-12-03T03:33:32.945Z,18.60
2022-12-03T03:36:00.670Z,18.40
2022-12-03T03:38:29.834Z,19.10
2022-12-03T03:40:58.215Z,19.25
2022-12-03T03:43:25.456Z,18.08
2022-12-03T03:45:53.780Z,19.83
2022-12-03T03:48:21.704Z,18.95
2022-12-03T03:50:50.547Z,17.67
2022-12-03T03:53:18.690Z,18.08
2022-12-03T03:55:46.318Z,17.83
2022-12-03T03:58:13.579Z,18.48
2022-12-03T04:00:44.743Z,18.33
2022-12-03T04:03:11.824Z,17.60
2022-12-03T04:05:39.557Z,18.20
2022-12-03T04:08:06.705Z,18.83
2022-12-03T04:10:52.831Z,18.90
2022-12-03T04:13:19.969Z,17.27
2022-12-03T04:15:47.155Z,17.88
2022-12-03T04:18:33.066Z,18.65
2022-12-03T04:21:19.516Z,17.90
2022-12-03T04:23:46.349Z,16.77
2022-12-03T04:26:32.275Z,18.23
2022-12-03T04:28:59.201Z,17.73
2022-12-03T04:31:45.408Z,17.98
2022-12-03T04:34:30.674Z,17.92
2022-12-03T04:36:57.661Z,17.83
2022-12-03T04:39:24.497Z,17.95
2022-12-03T04:41:51.757Z,17.25
2022-12-03T04:44:36.603Z,17.38
2022-12-03T04:47:09.465Z,17.08
2022-12-03T04:49:40.758Z,18.15
2022-12-03T04:52:08.317Z,16.77
2022-12-03T04:54:35.949Z,17.52
2022-12-03T04:57:03.833Z,18.13
2022-12-03T04:59:31.300Z,18.85
2022-12-03T05:01:58.725Z,17.90
2022-12-03T05:04:25.895Z,18.50
2022-12-03T05:06:52.974Z,19.10
2022-12-03T05:09:20.284Z,17.83
2022-12-03T05:11:47.176Z,18.55
2022-12-03T05:14:14.459Z,19.17
2022-12-03T05:16:41.311Z,19.52
2022-12-03T05:19:11.135Z,18.00
2022-12-03T05:21:38.039Z,18.23
2022-12-03T05:24:05.474Z,18.65
2022-12-03T05:26:32.467Z,19.23
2022-12-03T05:28:59.528Z,19.20
2022-12-03T05:31:26.817Z,19.02
2022-12-03T05:33:55.157Z,19.75
2022-12-03T05:36:22.260Z,19.25
2022-12-03T05:38:49.258Z,18.67
2022-12-03T05:41:34.839Z,19.35
2022-12-03T05:44:01.749Z,19.77
2022-12-03T05:46:28.688Z,18.58
2022-12-03T05:48:55.582Z,19.80
2022-12-03T05:51:22.423Z,19.23
2022-12-03T05:53:49.327Z,19.75
2022-12-03T05:56:16.150Z,18.00
2022-12-03T05:58:43.264Z,18.10
2022-12-03T06:01:10.083Z,18.08
2022-12-03T06:03:37.376Z,19.38
2022-12-03T06:06:04.710Z,18.42
2022-12-03T06:08:31.661Z,18.05
2022-12-03T06:10:58.501Z,18.42
2022-12-03T06:13:28.707Z,18.42
2022-12-03T06:15:55.776Z,18.05
2022-12-03T06:18:22.638Z,19.42
2022-12-03T06:20:50.694Z,19.00
2022-12-03T06:23:17.624Z,18.15
2022-12-03T06:25:44.774Z,18.98
2022-12-03T06:28:11.766Z,18.13
2022-12-03T06:30:38.542Z,19.20
2022-12-03T06:33:05.559Z,18.25
2022-12-03T06:35:32.443Z,19.65
2022-12-03T06:37:59.424Z,18.35
2022-12-03T06:40:26.746Z,19.83
2022-12-03T06:42:53.960Z,17.92
2022-12-03T06:45:20.810Z,19.33
2022-12-03T06:47:47.879Z,18.63
2022-12-03T06:50:14.925Z,19.10
2022-12-03T06:52:42.086Z,20.40
2022-12-03T06:55:09.678Z,19.67
2022-12-03T06:57:36.922Z,19.30
2022-12-03T07:00:06.324Z,20.27
2022-12-03T07:02:33.812Z,19.30
2022-12-03T07:05:00.866Z,17.67
2022-12-03T07:07:28.029Z,18.42
2022-12-03T07:09:54.990Z,18.05
2022-12-03T07:12:22.125Z,18.85
2022-12-03T07:14:49.902Z,17.58
2022-12-03T07:17:17.061Z,19.05
2022-12-03T07:19:44.439Z,18.48
2022-12-03T07:22:11.475Z,17.92
2022-12-03T07:24:38.791Z,17.70
2022-12-03T07:27:05.893Z,18.17
2022-12-03T07:29:32.787Z,17.63
2022-12-03T07:31:59.984Z,18.73
2022-12-03T07:34:28.397Z,18.92
2022-12-03T07:36:55.234Z,18.70
2022-12-03T07:39:22.361Z,17.83
2022-12-03T07:41:49.841Z,17.60
2022-12-03T07:44:16.857Z,17.63
2022-12-03T07:46:43.862Z,18.80
2022-12-03T07:49:12.347Z,19.05
2022-12-03T07:51:39.693Z,18.60
2022-12-03T07:54:06.625Z,18.55
2022-12-03T07:56:34.190Z,18.73
2022-12-03T07:59:01.132Z,21.15
2022-12-03T08:01:28.463Z,21.38
2022-12-03T08:03:55.502Z,20.23
2022-12-03T08:06:22.613Z,21.30
2022-12-03T08:08:49.742Z,19.02
2022-12-03T08:11:16.750Z,20.20
2022-12-03T08:13:47.392Z,22.60
2022-12-03T08:16:20.308Z,21.65
2022-12-03T08:18:49.206Z,22.25
2022-12-03T08:21:21.280Z,22.60
2022-12-03T08:23:48.573Z,21.38
2022-12-03T08:26:42.311Z,23.13
2022-12-03T08:29:14.792Z,22.52
2022-12-03T08:31:42.329Z,20.58
2022-12-03T08:34:18.130Z,22.48
2022-12-03T08:36:45.895Z,21.10
2022-12-03T08:39:37.848Z,20.48
2022-12-03T08:42:29.569Z,19.75
2022-12-03T08:44:57.207Z,20.80
2022-12-03T08:47:25.124Z,20.95
2022-12-03T08:50:01.355Z,21.00
2022-12-03T08:52:39.313Z,20.50
2022-12-03T08:55:35.792Z,21.50
2022-12-03T08:58:22.886Z,22.98
2022-12-03T09:00:58.951Z,19.73
2022-12-03T09:03:30.698Z,23.42
2022-12-03T09:05:58.055Z,22.85
2022-12-03T09:08:25.029Z,21.75
2022-12-03T09:10:53.124Z,20.00
2022-12-03T09:13:20.849Z,20.17
2022-12-03T09:15:48.642Z,20.48
2022-12-03T09:18:15.939Z,20.15
2022-12-03T09:20:43.807Z,20.60
2022-12-03T09:23:11.372Z,20.73
2022-12-03T09:25:38.253Z,19.90
2022-12-03T09:28:09.614Z,19.80
2022-12-03T09:30:40.239Z,21.00
2022-12-03T09:33:07.504Z,21.33
2022-12-03T09:35:34.724Z,21.30
2022-12-03T09:38:02.124Z,20.45
2022-12-03T09:40:29.395Z,21.05
2022-12-03T09:42:58.792Z,20.52
2022-12-03T09:45:25.965Z,22.17
2022-12-03T09:47:53.263Z,21.80
2022-12-03T09:50:24.037Z,21.38
2022-12-03T09:52:55.275Z,21.70
2022-12-03T09:55:25.684Z,21.35
2022-12-03T09:57:58.056Z,20.77
2022-12-03T10:00:29.155Z,21.85
2022-12-03T10:03:03.061Z,22.38
2022-12-03T10:05:30.519Z,23.88
2022-12-03T10:08:07.528Z,22.08
2022-12-03T10:10:36.973Z,21.73
2022-12-03T10:13:04.528Z,21.77
2022-12-03T10:15:33.013Z,22.13
2022-12-03T10:18:06.414Z,22.38
2022-12-03T10:20:34.103Z,22.48
2022-12-03T10:23:02.884Z,21.95
2022-12-03T10:25:29.860Z,19.90
2022-12-03T10:28:02.629Z,23.45
2022-12-03T10:30:40.600Z,23.15
2022-12-03T10:33:18.991Z,22.40
2022-12-03T10:35:46.415Z,21.35
2022-12-03T10:38:23.487Z,21.02
2022-12-03T10:41:03.899Z,21.77
2022-12-03T10:43:31.364Z,21.63
2022-12-03T10:46:04.829Z,20.27
2022-12-03T10:48:41.536Z,22.33
2022-12-03T10:51:22.025Z,22.13
2022-12-03T10:53:50.600Z,21.83
2022-12-03T10:56:36.904Z,21.38
2022-12-03T10:59:03.924Z,22.02
2022-12-03T11:01:32.121Z,21.98
2022-12-03T11:04:04.876Z,22.48
2022-12-03T11:06:35.156Z,21.38
2022-12-03T11:09:08.859Z,22.52
2022-12-03T11:11:36.370Z,22.15
2022-12-03T11:14:05.388Z,21.80
2022-12-03T11:16:42.204Z,22.35
2022-12-03T11:19:12.316Z,21.63
2022-12-03T11:22:04.782Z,22.25
2022-12-03T11:25:17.259Z,22.52
2022-12-03T11:27:45.099Z,21.73
2022-12-03T11:30:12.046Z,22.48
2022-12-03T11:32:38.882Z,23.95
2022-12-03T11:35:25.865Z,23.88
2022-12-03T11:37:53.306Z,22.70
2022-12-03T11:40:20.276Z,23.42
2022-12-03T11:42:48.437Z,22.65
2022-12-03T11:45:37.065Z,23.27
2022-12-03T11:48:17.322Z,22.15
2022-12-03T11:50:52.282Z,22.90
2022-12-03T11:53:27.511Z,23.10
2022-12-03T11:56:10.898Z,22.75
2022-12-03T11:58:42.474Z,21.77
2022-12-03T12:01:09.717Z,23.10
2022-12-03T12:03:44.065Z,22.38
2022-12-03T12:06:12.316Z,22.25
2022-12-03T12:08:42.160Z,22.23
2022-12-03T12:11:19.931Z,22.40
2022-12-03T12:13:55.475Z,23.08
2022-12-03T12:16:43.729Z,22.02
2022-12-03T12:19:35.669Z,22.55
2022-12-03T12:22:16.285Z,22.80
2022-12-03T12:24:46.025Z,21.90
2022-12-03T12:27:23.974Z,20.98
2022-12-03T12:29:57.576Z,22.35
2022-12-03T12:32:30.317Z,22.50
2022-12-03T12:35:02.844Z,20.30
2022-12-03T12:37:36.528Z,21.65
2022-12-03T12:40:13.671Z,20.67
2022-12-03T12:42:50.783Z,21.10
2022-12-03T12:45:21.993Z,23.02
2022-12-03T12:47:55.748Z,20.33
2022-12-03T12:50:23.123Z,21.98
2022-12-03T12:52:53.308Z,23.27
2022-12-03T12:58:11.641Z,23.17
2022-12-03T13:00:38.729Z,22.38
2022-12-03T13:03:08.230Z,23.15
2022-12-03T13:05:44.550Z,24.80
2022-12-03T13:08:33.910Z,24.73
2022-12-03T13:11:02.319Z,24.48
2022-12-03T13:13:40.218Z,24.23
2022-12-03T13:16:13.784Z,24.73
2022-12-03T13:18:45.637Z,25.80
2022-12-03T13:21:33.441Z,26.17
2022-12-03T13:24:01.853Z,23.88
2022-12-03T13:26:55.467Z,24.52
2022-12-03T13:29:23.388Z,25.27
2022-12-03T13:31:59.348Z,25.52
2022-12-03T13:34:33.719Z,24.50
2022-12-03T13:37:13.445Z,24.40
2022-12-03T13:39:48.920Z,23.48
2022-12-03T13:42:38.719Z,23.02
2022-12-03T13:45:24.770Z,24.25
2022-12-03T13:48:04.357Z,23.67
2022-12-03T13:50:36.133Z,23.60
2022-12-03T13:53:09.654Z,25.45
2022-12-03T13:55:41.661Z,24.17
2022-12-03T13:58:09.161Z,24.00
2022-12-03T14:00:36.414Z,24.58
2022-12-03T14:03:03.700Z,26.38
2022-12-03T14:05:30.895Z,23.92
2022-12-03T14:08:03.731Z,25.63
2022-12-03T14:10:31.162Z,23.23
2022-12-03T14:12:59.041Z,22.70
2022-12-03T14:15:26.499Z,23.73
2022-12-03T14:17:54.065Z,23.13
2022-12-03T14:20:21.519Z,24.25
2022-12-03T14:22:59.019Z,23.35
2022-12-03T14:25:27.802Z,23.02
2022-12-03T14:27:54.885Z,25.17
2022-12-03T14:30:22.034Z,24.08
2022-12-03T14:32:49.048Z,23.65
2022-12-03T14:35:16.106Z,23.92
2022-12-03T14:37:43.393Z,24.13
2022-12-03T14:40:14.190Z,24.08
2022-12-03T14:42:44.695Z,23.67
2022-12-03T14:45:11.771Z,24.67
2022-12-03T14:47:38.940Z,24.00
2022-12-03T14:50:06.882Z,24.77
2022-12-03T14:52:34.297Z,23.45
2022-12-03T14:55:01.441Z,23.90
2022-12-03T14:57:28.879Z,24.80
2022-12-03T14:59:56.262Z,23.90
2022-12-03T15:02:23.499Z,22.58
2022-12-03T15:04:51.382Z,23.30
2022-12-03T15:07:18.558Z,24.35
2022-12-03T15:09:45.935Z,25.33
2022-12-03T15:12:13.924Z,24.38
2022-12-03T15:14:41.468Z,23.77
2022-12-03T15:17:09.716Z,24.70
2022-12-03T15:19:37.254Z,23.98
2022-12-03T15:22:04.513Z,25.23
2022-12-03T15:24:31.540Z,23.77
2022-12-03T15:27:00.190Z,25.00
2022-12-03T15:29:27.621Z,23.90
2022-12-03T15:31:55.002Z,24.80
2022-12-03T15:34:23.183Z,24.23
2022-12-03T15:36:54.085Z,24.50
2022-12-03T15:39:21.354Z,24.13
2022-12-03T15:41:48.848Z,24.63
2022-12-03T15:44:16.317Z,26.25
2022-12-03T15:46:43.717Z,25.02
2022-12-03T15:49:10.858Z,24.83
2022-12-03T15:51:38.458Z,25.02
2022-12-03T15:54:06.556Z,23.63
2022-12-03T15:56:37.668Z,26.77
2022-12-03T15:59:04.834Z,24.85
2022-12-03T16:01:35.281Z,24.98
2022-12-03T16:04:02.497Z,25.38
2022-12-03T16:06:29.572Z,23.27
2022-12-03T16:08:56.593Z,24.58
2022-12-03T16:11:23.664Z,25.05
2022-12-03T16:13:52.622Z,23.92
2022-12-03T16:16:20.145Z,25.40
2022-12-03T16:18:47.622Z,25.10
2022-12-03T16:21:14.868Z,22.63
2022-12-03T16:23:41.742Z,23.73
2022-12-03T16:26:08.960Z,24.83
2022-12-03T16:28:35.812Z,25.83
2022-12-03T16:31:06.119Z,26.08
2022-12-03T16:33:33.605Z,25.48
2022-12-03T16:36:00.693Z,26.10
2022-12-03T16:38:28.333Z,26.10
2022-12-03T16:40:59.227Z,24.58
2022-12-03T16:43:26.634Z,24.77
2022-12-03T16:46:21.402Z,25.17
2022-12-03T16:48:48.817Z,25.23
2022-12-03T16:51:16.857Z,23.65
2022-12-03T16:53:44.914Z,23.00
2022-12-03T16:56:12.537Z,23.50
2022-12-03T16:58:40.443Z,24.42
2022-12-03T17:01:08.501Z,23.42
2022-12-03T17:03:36.970Z,23.30
2022-12-03T17:06:05.796Z,22.50
2022-12-03T17:08:33.860Z,42.78
2022-12-03T17:11:01.327Z,22.67
2022-12-03T17:13:29.444Z,22.80
2022-12-03T17:15:56.706Z,24.33
2022-12-03T17:18:24.262Z,23.90
2022-12-03T17:20:51.836Z,22.30
2022-12-03T17:23:18.725Z,23.90
2022-12-03T17:25:45.863Z,22.83
2022-12-03T17:28:12.820Z,22.02
2022-12-03T17:30:39.748Z,23.15
2022-12-03T17:33:07.082Z,22.67
2022-12-03T17:35:34.382Z,22.00
2022-12-03T17:38:02.661Z,21.73
2022-12-03T17:40:29.536Z,22.20
2022-12-03T17:42:56.570Z,21.88
2022-12-03T17:45:23.414Z,22.40
2022-12-03T17:47:50.203Z,21.83
2022-12-03T17:50:17.137Z,23.02
2022-12-03T17:52:43.922Z,22.27
2022-12-03T17:55:15.777Z,22.90
2022-12-03T17:57:48.352Z,22.20
2022-12-03T18:00:15.952Z,23.05
2022-12-03T18:02:43.020Z,21.95
2022-12-03T18:05:10.931Z,23.40
2022-12-03T18:07:37.837Z,24.55
2022-12-03T18:10:05.552Z,23.85
2022-12-03T18:12:34.092Z,23.38
2022-12-03T18:15:01.003Z,23.65
2022-12-03T18:17:27.800Z,22.38
2022-12-03T18:19:55.011Z,24.40
2022-12-03T18:22:21.993Z,24.13
2022-12-03T18:24:52.018Z,24.17
2022-12-03T18:27:20.803Z,23.30
2022-12-03T18:29:48.108Z,24.85
2022-12-03T18:32:28.416Z,22.80
2022-12-03T18:34:56.532Z,24.67
2022-12-03T18:37:27.662Z,24.83
2022-12-03T18:39:55.481Z,24.23
2022-12-03T18:42:23.472Z,25.40
2022-12-03T18:44:52.215Z,24.83
2022-12-03T18:47:28.706Z,23.48
2022-12-03T18:49:56.542Z,24.33
2022-12-03T18:52:24.971Z,25.17
2022-12-03T18:54:52.637Z,25.17
2022-12-03T18:57:19.504Z,24.80
2022-12-03T18:59:46.730Z,23.67
2022-12-03T19:02:53.724Z,24.20
2022-12-03T19:05:04.961Z,23.65
2022-12-03T19:07:32.381Z,24.48
2022-12-03T19:09:59.504Z,22.95
2022-12-03T19:12:26.472Z,23.98
2022-12-03T19:14:54.173Z,24.20
2022-12-03T19:17:21.807Z,24.23
2022-12-03T19:19:49.016Z,24.67
2022-12-03T19:22:16.365Z,24.58
2022-12-03T19:24:43.791Z,24.95
2022-12-03T19:27:10.899Z,25.13
2022-12-03T19:29:37.762Z,23.60
2022-12-03T19:32:04.994Z,24.15
2022-12-03T19:34:32.284Z,25.30
2022-12-03T19:36:59.498Z,24.42
2022-12-03T19:39:26.483Z,25.20
2022-12-03T19:41:53.326Z,24.27
2022-12-03T19:44:20.224Z,25.55
2022-12-03T19:46:49.959Z,25.27
2022-12-03T19:49:18.749Z,25.38
2022-12-03T19:51:45.692Z,24.80
2022-12-03T19:54:13.034Z,24.92
2022-12-03T19:56:40.087Z,24.38
2022-12-03T19:59:08.044Z,24.63
2022-12-03T20:01:36.406Z,24.80
2022-12-03T20:04:04.285Z,23.85
2022-12-03T20:06:33.496Z,24.13
2022-12-03T20:09:04.822Z,24.73
2022-12-03T20:11:33.680Z,24.42
2022-12-03T20:14:03.313Z,24.30
2022-12-03T20:16:30.466Z,26.20
2022-12-03T20:18:59.937Z,25.52
2022-12-03T20:21:29.897Z,25.73
2022-12-03T20:23:57.009Z,25.33
2022-12-03T20:26:27.170Z,24.48
2022-12-03T20:28:55.225Z,25.73
2022-12-03T20:31:25.362Z,25.48
2022-12-03T20:33:55.608Z,26.20
2022-12-03T20:36:23.010Z,26.80
2022-12-03T20:38:54.928Z,24.85
2022-12-03T20:41:22.013Z,24.35
2022-12-03T20:43:49.517Z,24.60
2022-12-03T20:46:23.868Z,25.55
2022-12-03T20:48:51.007Z,26.00
2022-12-03T20:51:19.951Z,24.60
2022-12-03T20:53:47.885Z,25.35
2022-12-03T20:56:20.673Z,24.38
2022-12-03T20:58:49.100Z,25.30
2022-12-03T21:01:22.623Z,23.52
2022-12-03T21:03:52.147Z,25.33
2022-12-03T21:06:20.029Z,24.88
2022-12-03T21:08:47.331Z,25.38
2022-12-03T21:11:18.331Z,24.30
2022-12-03T21:13:46.710Z,25.33
2022-12-03T21:16:17.500Z,25.30
2022-12-03T21:18:44.651Z,24.92
2022-12-03T21:21:13.556Z,23.75
2022-12-03T21:23:40.646Z,25.48
2022-12-03T21:26:10.473Z,24.17
2022-12-03T21:28:39.549Z,23.33
2022-12-03T21:31:10.674Z,23.23
2022-12-03T21:33:38.040Z,24.48
2022-12-03T21:36:06.047Z,24.48
2022-12-03T21:38:34.315Z,26.40
2022-12-03T21:41:02.250Z,24.33
2022-12-03T21:43:29.473Z,23.80
2022-12-03T21:45:56.517Z,25.70
2022-12-03T21:48:23.608Z,25.25
2022-12-03T21:51:00.478Z,26.05
2022-12-03T21:53:29.324Z,25.70
2022-12-03T21:55:56.495Z,24.33
2022-12-03T21:58:23.601Z,25.02
2022-12-03T22:00:51.522Z,26.80
2022-12-03T22:03:18.335Z,26.92
2022-12-03T22:05:45.300Z,24.63
2022-12-03T22:08:14.154Z,25.92
2022-12-03T22:10:41.065Z,25.55
2022-12-03T22:13:08.360Z,25.75
2022-12-03T22:15:38.502Z,26.23
2022-12-03T22:18:05.504Z,26.38
2022-12-03T22:20:33.663Z,26.13
2022-12-03T22:23:00.609Z,25.17
2022-12-03T22:25:27.983Z,25.52
2022-12-03T22:27:54.938Z,25.75
2022-12-03T22:30:22.144Z,24.83
2022-12-03T22:32:48.952Z,24.90
2022-12-03T22:35:16.160Z,24.55
2022-12-03T22:37:42.920Z,24.85
2022-12-03T22:40:10.369Z,25.02
2022-12-03T22:42:37.265Z,24.45
2022-12-03T22:45:04.436Z,24.60
2022-12-03T22:47:31.337Z,24.40
2022-12-03T22:49:58.368Z,25.55
2022-12-03T22:52:25.157Z,25.88
2022-12-03T22:54:52.077Z,24.60
2022-12-03T22:57:19.278Z,25.35
2022-12-03T22:59:46.202Z,24.88
2022-12-03T23:02:13.312Z,25.20
2022-12-03T23:04:40.367Z,24.65
2022-12-03T23:07:08.409Z,24.58
2022-12-03T23:09:35.328Z,24.48
2022-12-03T23:12:02.358Z,24.85
2022-12-03T23:14:29.215Z,24.77
2022-12-03T23:16:56.744Z,24.95
2022-12-03T23:19:23.520Z,25.65
2022-12-03T23:21:50.415Z,25.23
2022-12-03T23:24:17.298Z,24.77
2022-12-03T23:26:44.090Z,26.38
2022-12-03T23:29:10.896Z,23.45
2022-12-03T23:31:37.794Z,24.88
2022-12-03T23:34:05.267Z,25.00
2022-12-03T23:36:33.183Z,24.70
2022-12-03T23:39:00.309Z,25.95
2022-12-03T23:41:27.747Z,24.75
2022-12-03T23:43:56.027Z,25.80
2022-12-03T23:46:25.890Z,25.50
2022-12-03T23:48:53.118Z,24.95
2022-12-03T23:51:23.791Z,26.15
2022-12-03T23:53:52.999Z,24.63
2022-12-03T23:56:23.487Z,26.35
2022-12-03T23:58:50.987Z,24.75
